sensor_id;sensor_type;location;lat;lon;timestamp;P1;durP1;ratioP1;P2;durP2;ratioP2
11342;SDS011;5726;42.160;24.746;2022-11-20T00:01:13;37.57;;;24.30;;
11342;SDS011;5726;42.160;24.746;2022-11-20T00:03:43;45.00;;;24.67;;
11342;SDS011;5726;42.160;24.746;2022-11-20T00:06:10;38.10;;;25.33;;
11342;SDS011;5726;42.160;24.746;2022-11-20T00:08:37;38.47;;;24.40;;
11342;SDS011;5726;42.160;24.746;2022-11-20T00:11:04;42.30;;;26.33;;
11342;SDS011;5726;42.160;24.746;2022-11-20T00:13:30;46.87;;;29.20;;
11342;SDS011;5726;42.160;24.746;2022-11-20T00:15:57;40.50;;;26.27;;
11342;SDS011;5726;42.160;24.746;2022-11-20T00:18:24;38.07;;;25.93;;
11342;SDS011;5726;42.160;24.746;2022-11-20T00:20:49;37.00;;;24.70;;
11342;SDS011;5726;42.160;24.746;2022-11-20T00:23:15;37.13;;;25.83;;
11342;SDS011;5726;42.160;24.746;2022-11-20T00:25:40;41.53;;;26.07;;
11342;SDS011;5726;42.160;24.746;2022-11-20T00:28:06;38.93;;;25.20;;
11342;SDS011;5726;42.160;24.746;2022-11-20T00:30:31;38.30;;;25.47;;
11342;SDS011;5726;42.160;24.746;2022-11-20T00:32:56;46.03;;;26.80;;
11342;SDS011;5726;42.160;24.746;2022-11-20T00:35:23;39.90;;;25.30;;
11342;SDS011;5726;42.160;24.746;2022-11-20T00:37:48;40.80;;;25.43;;
11342;SDS011;5726;42.160;24.746;2022-11-20T00:40:13;38.43;;;23.57;;
11342;SDS011;5726;42.160;24.746;2022-11-20T00:42:39;40.90;;;24.00;;
11342;SDS011;5726;42.160;24.746;2022-11-20T00:45:04;34.53;;;23.53;;
11342;SDS011;5726;42.160;24.746;2022-11-20T00:47:30;36.90;;;23.57;;
11342;SDS011;5726;42.160;24.746;2022-11-20T00:49:55;38.03;;;24.63;;
11342;SDS011;5726;42.160;24.746;2022-11-20T00:52:21;44.60;;;25.57;;
11342;SDS011;5726;42.160;24.746;2022-11-20T00:54:46;39.10;;;24.63;;
11342;SDS011;5726;42.160;24.746;2022-11-20T00:57:11;40.27;;;24.57;;
11342;SDS011;5726;42.160;24.746;2022-11-20T00:59:37;38.30;;;24.10;;
11342;SDS011;5726;42.160;24.746;2022-11-20T01:02:02;42.97;;;24.80;;
11342;SDS011;5726;42.160;24.746;2022-11-20T01:04:28;37.47;;;24.77;;
11342;SDS011;5726;42.160;24.746;2022-11-20T01:06:53;40.30;;;25.30;;
11342;SDS011;5726;42.160;24.746;2022-11-20T01:09:19;39.97;;;25.80;;
11342;SDS011;5726;42.160;24.746;2022-11-20T01:11:44;44.00;;;24.63;;
11342;SDS011;5726;42.160;24.746;2022-11-20T01:14:11;41.30;;;25.57;;
11342;SDS011;5726;42.160;24.746;2022-11-20T01:16:43;40.67;;;25.30;;
11342;SDS011;5726;42.160;24.746;2022-11-20T01:19:11;40.30;;;26.60;;
11342;SDS011;5726;42.160;24.746;2022-11-20T01:21:39;42.70;;;25.83;;
11342;SDS011;5726;42.160;24.746;2022-11-20T01:24:07;25.13;;;14.43;;
11342;SDS011;5726;42.160;24.746;2022-11-20T01:26:34;26.40;;;17.73;;
11342;SDS011;5726;42.160;24.746;2022-11-20T01:29:02;33.33;;;19.07;;
11342;SDS011;5726;42.160;24.746;2022-11-20T01:31:29;42.70;;;25.47;;
11342;SDS011;5726;42.160;24.746;2022-11-20T01:34:02;37.30;;;23.10;;
11342;SDS011;5726;42.160;24.746;2022-11-20T01:36:30;36.37;;;23.27;;
11342;SDS011;5726;42.160;24.746;2022-11-20T01:38:58;37.77;;;21.80;;
11342;SDS011;5726;42.160;24.746;2022-11-20T01:41:26;33.00;;;22.30;;
11342;SDS011;5726;42.160;24.746;2022-11-20T01:44:12;39.70;;;22.07;;
11342;SDS011;5726;42.160;24.746;2022-11-20T01:46:42;37.23;;;22.53;;
11342;SDS011;5726;42.160;24.746;2022-11-20T01:49:29;37.80;;;22.20;;
11342;SDS011;5726;42.160;24.746;2022-11-20T01:52:02;39.33;;;23.23;;
11342;SDS011;5726;42.160;24.746;2022-11-20T01:54:36;34.37;;;21.97;;
11342;SDS011;5726;42.160;24.746;2022-11-20T01:57:08;40.77;;;23.17;;
11342;SDS011;5726;42.160;24.746;2022-11-20T01:59:38;37.03;;;22.03;;
11342;SDS011;5726;42.160;24.746;2022-11-20T02:02:09;33.07;;;22.33;;
11342;SDS011;5726;42.160;24.746;2022-11-20T02:04:35;34.30;;;20.73;;
11342;SDS011;5726;42.160;24.746;2022-11-20T02:07:01;36.07;;;21.80;;
11342;SDS011;5726;42.160;24.746;2022-11-20T02:09:28;35.83;;;21.83;;
11342;SDS011;5726;42.160;24.746;2022-11-20T02:11:54;32.80;;;21.10;;
11342;SDS011;5726;42.160;24.746;2022-11-20T02:14:21;35.27;;;21.43;;
11342;SDS011;5726;42.160;24.746;2022-11-20T02:16:47;34.37;;;21.33;;
11342;SDS011;5726;42.160;24.746;2022-11-20T02:22:07;31.67;;;20.60;;
11342;SDS011;5726;42.160;24.746;2022-11-20T02:24:35;37.40;;;21.33;;
11342;SDS011;5726;42.160;24.746;2022-11-20T02:27:08;40.53;;;22.20;;
11342;SDS011;5726;42.160;24.746;2022-11-20T02:29:39;34.33;;;22.03;;
11342;SDS011;5726;42.160;24.746;2022-11-20T02:32:27;32.00;;;18.97;;
11342;SDS011;5726;42.160;24.746;2022-11-20T02:34:54;28.33;;;16.73;;
11342;SDS011;5726;42.160;24.746;2022-11-20T02:37:20;23.87;;;13.37;;
11342;SDS011;5726;42.160;24.746;2022-11-20T02:39:47;22.77;;;12.47;;
11342;SDS011;5726;42.160;24.746;2022-11-20T02:42:14;28.93;;;17.10;;
11342;SDS011;5726;42.160;24.746;2022-11-20T02:44:39;30.67;;;17.10;;
11342;SDS011;5726;42.160;24.746;2022-11-20T02:47:05;30.33;;;15.73;;
11342;SDS011;5726;42.160;24.746;2022-11-20T02:49:30;31.27;;;18.07;;
11342;SDS011;5726;42.160;24.746;2022-11-20T02:51:56;27.23;;;17.87;;
11342;SDS011;5726;42.160;24.746;2022-11-20T02:54:22;28.27;;;17.13;;
11342;SDS011;5726;42.160;24.746;2022-11-20T02:56:47;24.80;;;14.30;;
11342;SDS011;5726;42.160;24.746;2022-11-20T02:59:13;17.03;;;9.90;;
11342;SDS011;5726;42.160;24.746;2022-11-20T03:01:38;17.23;;;6.97;;
11342;SDS011;5726;42.160;24.746;2022-11-20T03:04:04;27.03;;;15.73;;
11342;SDS011;5726;42.160;24.746;2022-11-20T03:06:30;22.83;;;11.67;;
11342;SDS011;5726;42.160;24.746;2022-11-20T03:08:55;26.60;;;15.33;;
11342;SDS011;5726;42.160;24.746;2022-11-20T03:11:21;26.73;;;15.63;;
11342;SDS011;5726;42.160;24.746;2022-11-20T03:13:46;25.57;;;15.83;;
11342;SDS011;5726;42.160;24.746;2022-11-20T03:16:13;27.10;;;16.70;;
11342;SDS011;5726;42.160;24.746;2022-11-20T03:18:40;30.70;;;17.17;;
11342;SDS011;5726;42.160;24.746;2022-11-20T03:21:07;26.70;;;16.57;;
11342;SDS011;5726;42.160;24.746;2022-11-20T03:23:34;24.20;;;16.20;;
11342;SDS011;5726;42.160;24.746;2022-11-20T03:26:17;30.43;;;17.73;;
11342;SDS011;5726;42.160;24.746;2022-11-20T03:28:48;21.40;;;12.43;;
11342;SDS011;5726;42.160;24.746;2022-11-20T03:31:16;23.03;;;11.03;;
11342;SDS011;5726;42.160;24.746;2022-11-20T03:33:42;22.83;;;11.73;;
11342;SDS011;5726;42.160;24.746;2022-11-20T03:36:09;21.10;;;13.13;;
11342;SDS011;5726;42.160;24.746;2022-11-20T03:38:37;22.50;;;13.20;;
11342;SDS011;5726;42.160;24.746;2022-11-20T03:41:07;20.70;;;13.07;;
11342;SDS011;5726;42.160;24.746;2022-11-20T03:43:34;20.53;;;13.60;;
11342;SDS011;5726;42.160;24.746;2022-11-20T03:46:00;22.23;;;9.47;;
11342;SDS011;5726;42.160;24.746;2022-11-20T03:48:26;29.60;;;17.17;;
11342;SDS011;5726;42.160;24.746;2022-11-20T03:50:52;20.73;;;12.77;;
11342;SDS011;5726;42.160;24.746;2022-11-20T03:53:31;22.67;;;10.87;;
11342;SDS011;5726;42.160;24.746;2022-11-20T03:55:56;20.10;;;9.93;;
11342;SDS011;5726;42.160;24.746;2022-11-20T03:58:21;22.73;;;9.60;;
11342;SDS011;5726;42.160;24.746;2022-11-20T04:00:47;19.77;;;8.63;;
11342;SDS011;5726;42.160;24.746;2022-11-20T04:03:12;31.63;;;17.93;;
11342;SDS011;5726;42.160;24.746;2022-11-20T04:05:37;20.77;;;12.43;;
11342;SDS011;5726;42.160;24.746;2022-11-20T04:08:03;17.10;;;8.83;;
11342;SDS011;5726;42.160;24.746;2022-11-20T04:10:28;18.70;;;8.00;;
11342;SDS011;5726;42.160;24.746;2022-11-20T04:12:54;18.27;;;7.90;;
11342;SDS011;5726;42.160;24.746;2022-11-20T04:15:19;23.77;;;9.07;;
11342;SDS011;5726;42.160;24.746;2022-11-20T04:17:45;21.93;;;8.43;;
11342;SDS011;5726;42.160;24.746;2022-11-20T04:20:10;17.10;;;7.17;;
11342;SDS011;5726;42.160;24.746;2022-11-20T04:22:36;15.37;;;7.37;;
11342;SDS011;5726;42.160;24.746;2022-11-20T04:25:01;12.40;;;7.73;;
11342;SDS011;5726;42.160;24.746;2022-11-20T04:27:26;16.00;;;6.77;;
11342;SDS011;5726;42.160;24.746;2022-11-20T04:29:52;12.50;;;6.37;;
11342;SDS011;5726;42.160;24.746;2022-11-20T04:32:17;13.77;;;6.40;;
11342;SDS011;5726;42.160;24.746;2022-11-20T04:34:42;17.27;;;6.47;;
11342;SDS011;5726;42.160;24.746;2022-11-20T04:37:08;12.77;;;5.70;;
11342;SDS011;5726;42.160;24.746;2022-11-20T04:39:33;23.03;;;7.60;;
11342;SDS011;5726;42.160;24.746;2022-11-20T04:41:59;19.23;;;6.93;;
11342;SDS011;5726;42.160;24.746;2022-11-20T04:44:42;14.43;;;5.80;;
11342;SDS011;5726;42.160;24.746;2022-11-20T04:47:08;13.23;;;6.20;;
11342;SDS011;5726;42.160;24.746;2022-11-20T04:49:33;14.63;;;5.63;;
11342;SDS011;5726;42.160;24.746;2022-11-20T04:51:59;11.73;;;5.07;;
11342;SDS011;5726;42.160;24.746;2022-11-20T04:54:24;12.77;;;4.87;;
11342;SDS011;5726;42.160;24.746;2022-11-20T04:56:50;11.23;;;4.70;;
11342;SDS011;5726;42.160;24.746;2022-11-20T04:59:15;11.73;;;4.43;;
11342;SDS011;5726;42.160;24.746;2022-11-20T05:01:41;10.33;;;4.10;;
11342;SDS011;5726;42.160;24.746;2022-11-20T05:04:06;14.23;;;4.73;;
11342;SDS011;5726;42.160;24.746;2022-11-20T05:06:32;12.63;;;4.13;;
11342;SDS011;5726;42.160;24.746;2022-11-20T05:08:58;16.47;;;4.10;;
11342;SDS011;5726;42.160;24.746;2022-11-20T05:11:24;10.50;;;3.90;;
11342;SDS011;5726;42.160;24.746;2022-11-20T05:13:50;12.40;;;4.17;;
11342;SDS011;5726;42.160;24.746;2022-11-20T05:16:20;10.53;;;3.90;;
11342;SDS011;5726;42.160;24.746;2022-11-20T05:18:47;12.20;;;4.43;;
11342;SDS011;5726;42.160;24.746;2022-11-20T05:21:14;17.50;;;4.77;;
11342;SDS011;5726;42.160;24.746;2022-11-20T05:23:40;21.37;;;7.10;;
11342;SDS011;5726;42.160;24.746;2022-11-20T05:26:06;13.97;;;4.20;;
11342;SDS011;5726;42.160;24.746;2022-11-20T05:28:37;8.87;;;4.47;;
11342;SDS011;5726;42.160;24.746;2022-11-20T05:31:09;8.37;;;3.40;;
11342;SDS011;5726;42.160;24.746;2022-11-20T05:33:40;8.90;;;3.73;;
11342;SDS011;5726;42.160;24.746;2022-11-20T05:36:07;13.80;;;4.40;;
11342;SDS011;5726;42.160;24.746;2022-11-20T05:38:32;12.70;;;4.20;;
11342;SDS011;5726;42.160;24.746;2022-11-20T05:41:05;10.30;;;4.30;;
11342;SDS011;5726;42.160;24.746;2022-11-20T05:43:32;13.00;;;4.17;;
11342;SDS011;5726;42.160;24.746;2022-11-20T05:46:02;10.30;;;3.57;;
11342;SDS011;5726;42.160;24.746;2022-11-20T05:48:28;7.10;;;2.97;;
11342;SDS011;5726;42.160;24.746;2022-11-20T05:50:54;12.00;;;3.63;;
11342;SDS011;5726;42.160;24.746;2022-11-20T05:53:19;8.70;;;3.90;;
11342;SDS011;5726;42.160;24.746;2022-11-20T05:55:44;11.17;;;4.13;;
11342;SDS011;5726;42.160;24.746;2022-11-20T05:58:10;11.20;;;3.43;;
11342;SDS011;5726;42.160;24.746;2022-11-20T06:00:36;12.43;;;4.50;;
11342;SDS011;5726;42.160;24.746;2022-11-20T06:03:01;8.47;;;4.23;;
11342;SDS011;5726;42.160;24.746;2022-11-20T06:05:27;22.07;;;12.17;;
11342;SDS011;5726;42.160;24.746;2022-11-20T06:07:52;27.77;;;14.53;;
11342;SDS011;5726;42.160;24.746;2022-11-20T06:10:18;12.27;;;5.97;;
11342;SDS011;5726;42.160;24.746;2022-11-20T06:12:43;19.83;;;10.67;;
11342;SDS011;5726;42.160;24.746;2022-11-20T06:15:09;15.60;;;5.90;;
11342;SDS011;5726;42.160;24.746;2022-11-20T06:17:34;11.43;;;5.50;;
11342;SDS011;5726;42.160;24.746;2022-11-20T06:20:00;13.00;;;6.50;;
11342;SDS011;5726;42.160;24.746;2022-11-20T06:22:25;11.73;;;5.60;;
11342;SDS011;5726;42.160;24.746;2022-11-20T06:24:51;16.53;;;5.37;;
11342;SDS011;5726;42.160;24.746;2022-11-20T06:27:16;13.47;;;6.50;;
11342;SDS011;5726;42.160;24.746;2022-11-20T06:29:42;11.27;;;6.07;;
11342;SDS011;5726;42.160;24.746;2022-11-20T06:32:07;15.87;;;6.30;;
11342;SDS011;5726;42.160;24.746;2022-11-20T06:34:32;49.93;;;30.00;;
11342;SDS011;5726;42.160;24.746;2022-11-20T06:36:58;23.30;;;10.83;;
11342;SDS011;5726;42.160;24.746;2022-11-20T06:39:23;14.10;;;6.57;;
11342;SDS011;5726;42.160;24.746;2022-11-20T06:41:49;13.63;;;8.23;;
11342;SDS011;5726;42.160;24.746;2022-11-20T06:44:14;11.07;;;5.70;;
11342;SDS011;5726;42.160;24.746;2022-11-20T06:46:40;11.00;;;5.67;;
11342;SDS011;5726;42.160;24.746;2022-11-20T06:49:06;18.37;;;8.40;;
11342;SDS011;5726;42.160;24.746;2022-11-20T06:51:33;19.57;;;7.73;;
11342;SDS011;5726;42.160;24.746;2022-11-20T07:00:44;13.43;;;7.07;;
11342;SDS011;5726;42.160;24.746;2022-11-20T07:03:10;21.17;;;9.40;;
11342;SDS011;5726;42.160;24.746;2022-11-20T07:08:40;16.30;;;7.37;;
11342;SDS011;5726;42.160;24.746;2022-11-20T07:11:06;14.73;;;6.03;;
11342;SDS011;5726;42.160;24.746;2022-11-20T07:13:32;14.57;;;5.97;;
11342;SDS011;5726;42.160;24.746;2022-11-20T07:16:02;13.27;;;4.87;;
11342;SDS011;5726;42.160;24.746;2022-11-20T07:18:28;11.80;;;4.80;;
11342;SDS011;5726;42.160;24.746;2022-11-20T07:20:54;11.73;;;4.70;;
11342;SDS011;5726;42.160;24.746;2022-11-20T07:23:20;12.67;;;5.40;;
11342;SDS011;5726;42.160;24.746;2022-11-20T07:25:45;33.20;;;20.63;;
11342;SDS011;5726;42.160;24.746;2022-11-20T07:28:10;35.53;;;21.63;;
11342;SDS011;5726;42.160;24.746;2022-11-20T07:30:36;15.37;;;6.23;;
11342;SDS011;5726;42.160;24.746;2022-11-20T07:33:01;13.73;;;5.33;;
11342;SDS011;5726;42.160;24.746;2022-11-20T07:35:27;15.00;;;7.17;;
11342;SDS011;5726;42.160;24.746;2022-11-20T07:37:52;11.20;;;4.60;;
11342;SDS011;5726;42.160;24.746;2022-11-20T07:40:18;13.60;;;5.10;;
11342;SDS011;5726;42.160;24.746;2022-11-20T07:42:48;17.73;;;5.50;;
11342;SDS011;5726;42.160;24.746;2022-11-20T07:45:20;14.50;;;5.80;;
11342;SDS011;5726;42.160;24.746;2022-11-20T07:47:48;12.77;;;5.20;;
11342;SDS011;5726;42.160;24.746;2022-11-20T07:50:14;46.03;;;29.90;;
11342;SDS011;5726;42.160;24.746;2022-11-20T07:52:40;19.43;;;11.73;;
11342;SDS011;5726;42.160;24.746;2022-11-20T07:55:05;57.53;;;41.47;;
11342;SDS011;5726;42.160;24.746;2022-11-20T07:57:32;15.20;;;5.53;;
11342;SDS011;5726;42.160;24.746;2022-11-20T07:59:57;10.90;;;5.30;;
11342;SDS011;5726;42.160;24.746;2022-11-20T08:02:23;14.47;;;4.80;;
11342;SDS011;5726;42.160;24.746;2022-11-20T08:04:48;13.83;;;6.33;;
11342;SDS011;5726;42.160;24.746;2022-11-20T08:07:28;17.70;;;6.90;;
11342;SDS011;5726;42.160;24.746;2022-11-20T08:09:56;14.77;;;7.97;;
11342;SDS011;5726;42.160;24.746;2022-11-20T08:12:34;12.50;;;7.17;;
11342;SDS011;5726;42.160;24.746;2022-11-20T08:15:41;16.73;;;8.10;;
11342;SDS011;5726;42.160;24.746;2022-11-20T08:18:13;20.10;;;10.93;;
11342;SDS011;5726;42.160;24.746;2022-11-20T08:20:39;20.17;;;12.47;;
11342;SDS011;5726;42.160;24.746;2022-11-20T08:23:05;23.47;;;15.20;;
11342;SDS011;5726;42.160;24.746;2022-11-20T08:25:32;21.97;;;12.70;;
11342;SDS011;5726;42.160;24.746;2022-11-20T08:27:59;30.67;;;18.17;;
11342;SDS011;5726;42.160;24.746;2022-11-20T08:30:26;27.93;;;18.17;;
11342;SDS011;5726;42.160;24.746;2022-11-20T08:32:52;29.40;;;19.90;;
11342;SDS011;5726;42.160;24.746;2022-11-20T08:35:17;34.43;;;23.23;;
11342;SDS011;5726;42.160;24.746;2022-11-20T08:37:45;26.80;;;17.70;;
11342;SDS011;5726;42.160;24.746;2022-11-20T08:40:11;24.87;;;16.80;;
11342;SDS011;5726;42.160;24.746;2022-11-20T08:42:37;28.33;;;16.40;;
11342;SDS011;5726;42.160;24.746;2022-11-20T08:45:02;24.00;;;12.77;;
11342;SDS011;5726;42.160;24.746;2022-11-20T08:47:29;23.80;;;13.00;;
11342;SDS011;5726;42.160;24.746;2022-11-20T08:49:55;20.37;;;13.03;;
11342;SDS011;5726;42.160;24.746;2022-11-20T08:52:20;15.13;;;9.20;;
11342;SDS011;5726;42.160;24.746;2022-11-20T08:54:45;15.90;;;8.67;;
11342;SDS011;5726;42.160;24.746;2022-11-20T08:57:11;14.70;;;6.60;;
11342;SDS011;5726;42.160;24.746;2022-11-20T08:59:36;17.77;;;8.13;;
11342;SDS011;5726;42.160;24.746;2022-11-20T09:02:02;16.17;;;5.17;;
11342;SDS011;5726;42.160;24.746;2022-11-20T09:04:27;12.73;;;4.50;;
11342;SDS011;5726;42.160;24.746;2022-11-20T09:06:53;12.67;;;5.17;;
11342;SDS011;5726;42.160;24.746;2022-11-20T09:09:18;8.70;;;4.60;;
11342;SDS011;5726;42.160;24.746;2022-11-20T09:11:44;10.77;;;4.63;;
11342;SDS011;5726;42.160;24.746;2022-11-20T09:14:10;8.23;;;3.77;;
11342;SDS011;5726;42.160;24.746;2022-11-20T09:16:35;10.80;;;4.10;;
11342;SDS011;5726;42.160;24.746;2022-11-20T09:19:00;11.23;;;3.75;;
11342;SDS011;5726;42.160;24.746;2022-11-20T09:21:26;9.40;;;4.37;;
11342;SDS011;5726;42.160;24.746;2022-11-20T09:23:51;9.27;;;3.58;;
11342;SDS011;5726;42.160;24.746;2022-11-20T09:26:17;8.23;;;3.20;;
11342;SDS011;5726;42.160;24.746;2022-11-20T09:28:42;7.70;;;3.58;;
11342;SDS011;5726;42.160;24.746;2022-11-20T09:31:08;12.27;;;4.40;;
11342;SDS011;5726;42.160;24.746;2022-11-20T09:33:41;6.82;;;3.28;;
11342;SDS011;5726;42.160;24.746;2022-11-20T09:36:08;8.13;;;3.20;;
11342;SDS011;5726;42.160;24.746;2022-11-20T09:38:33;10.50;;;3.40;;
11342;SDS011;5726;42.160;24.746;2022-11-20T09:41:05;12.80;;;4.05;;
11342;SDS011;5726;42.160;24.746;2022-11-20T09:46:35;10.13;;;3.80;;
11342;SDS011;5726;42.160;24.746;2022-11-20T09:49:12;11.75;;;3.55;;
11342;SDS011;5726;42.160;24.746;2022-11-20T09:51:58;13.25;;;4.43;;
11342;SDS011;5726;42.160;24.746;2022-11-20T09:54:30;9.38;;;4.07;;
11342;SDS011;5726;42.160;24.746;2022-11-20T09:57:01;10.95;;;3.97;;
11342;SDS011;5726;42.160;24.746;2022-11-20T09:59:35;10.73;;;3.33;;
11342;SDS011;5726;42.160;24.746;2022-11-20T10:04:59;9.05;;;4.15;;
11342;SDS011;5726;42.160;24.746;2022-11-20T10:08:04;10.77;;;4.80;;
11342;SDS011;5726;42.160;24.746;2022-11-20T10:11:05;22.85;;;9.00;;
11342;SDS011;5726;42.160;24.746;2022-11-20T10:16:41;20.42;;;8.70;;
11342;SDS011;5726;42.160;24.746;2022-11-20T10:21:57;65.88;;;22.45;;
11342;SDS011;5726;42.160;24.746;2022-11-20T10:29:38;11.77;;;5.10;;
11342;SDS011;5726;42.160;24.746;2022-11-20T10:32:11;11.95;;;5.20;;
11342;SDS011;5726;42.160;24.746;2022-11-20T10:34:45;11.18;;;4.70;;
11342;SDS011;5726;42.160;24.746;2022-11-20T10:37:16;14.48;;;3.67;;
11342;SDS011;5726;42.160;24.746;2022-11-20T10:42:37;13.18;;;4.35;;
11342;SDS011;5726;42.160;24.746;2022-11-20T10:45:15;16.30;;;5.43;;
11342;SDS011;5726;42.160;24.746;2022-11-20T10:47:47;12.07;;;4.30;;
11342;SDS011;5726;42.160;24.746;2022-11-20T10:50:14;15.48;;;5.57;;
11342;SDS011;5726;42.160;24.746;2022-11-20T10:55:50;81.38;;;62.78;;
11342;SDS011;5726;42.160;24.746;2022-11-20T11:01:02;62.65;;;42.22;;
11342;SDS011;5726;42.160;24.746;2022-11-20T11:03:38;36.72;;;17.95;;
11342;SDS011;5726;42.160;24.746;2022-11-20T11:08:37;31.13;;;15.80;;
11342;SDS011;5726;42.160;24.746;2022-11-20T11:13:43;12.30;;;5.95;;
11342;SDS011;5726;42.160;24.746;2022-11-20T11:16:17;19.80;;;9.02;;
11342;SDS011;5726;42.160;24.746;2022-11-20T11:18:49;17.40;;;8.02;;
11342;SDS011;5726;42.160;24.746;2022-11-20T11:21:20;19.00;;;7.85;;
11342;SDS011;5726;42.160;24.746;2022-11-20T11:23:48;17.63;;;7.90;;
11342;SDS011;5726;42.160;24.746;2022-11-20T11:26:23;14.35;;;5.30;;
11342;SDS011;5726;42.160;24.746;2022-11-20T11:29:00;16.92;;;5.20;;
11342;SDS011;5726;42.160;24.746;2022-11-20T11:31:31;14.98;;;5.05;;
11342;SDS011;5726;42.160;24.746;2022-11-20T11:34:07;16.20;;;6.20;;
11342;SDS011;5726;42.160;24.746;2022-11-20T11:36:37;32.55;;;17.30;;
11342;SDS011;5726;42.160;24.746;2022-11-20T11:39:04;37.05;;;26.23;;
11342;SDS011;5726;42.160;24.746;2022-11-20T11:41:36;29.25;;;18.55;;
11342;SDS011;5726;42.160;24.746;2022-11-20T11:44:15;18.70;;;8.35;;
11342;SDS011;5726;42.160;24.746;2022-11-20T11:47:05;15.75;;;7.47;;
11342;SDS011;5726;42.160;24.746;2022-11-20T11:49:43;29.38;;;16.70;;
11342;SDS011;5726;42.160;24.746;2022-11-20T11:52:13;28.70;;;17.50;;
11342;SDS011;5726;42.160;24.746;2022-11-20T11:54:57;25.38;;;12.77;;
11342;SDS011;5726;42.160;24.746;2022-11-20T12:00:08;18.33;;;8.55;;
11342;SDS011;5726;42.160;24.746;2022-11-20T12:02:43;20.20;;;10.73;;
11342;SDS011;5726;42.160;24.746;2022-11-20T12:05:29;42.70;;;26.15;;
11342;SDS011;5726;42.160;24.746;2022-11-20T12:13:21;11.35;;;4.80;;
11342;SDS011;5726;42.160;24.746;2022-11-20T12:15:57;26.88;;;10.98;;
11342;SDS011;5726;42.160;24.746;2022-11-20T12:18:23;25.85;;;8.38;;
11342;SDS011;5726;42.160;24.746;2022-11-20T12:21:03;14.27;;;5.82;;
11342;SDS011;5726;42.160;24.746;2022-11-20T12:23:51;16.25;;;7.07;;
11342;SDS011;5726;42.160;24.746;2022-11-20T12:26:35;18.73;;;6.65;;
11342;SDS011;5726;42.160;24.746;2022-11-20T12:36:58;13.52;;;6.82;;
11342;SDS011;5726;42.160;24.746;2022-11-20T12:39:43;20.05;;;6.20;;
11342;SDS011;5726;42.160;24.746;2022-11-20T12:53:58;16.20;;;6.57;;
11342;SDS011;5726;42.160;24.746;2022-11-20T12:56:57;15.70;;;5.65;;
11342;SDS011;5726;42.160;24.746;2022-11-20T13:02:26;19.27;;;6.65;;
11342;SDS011;5726;42.160;24.746;2022-11-20T13:07:39;58.08;;;30.83;;
11342;SDS011;5726;42.160;24.746;2022-11-20T13:10:11;29.85;;;13.95;;
11342;SDS011;5726;42.160;24.746;2022-11-20T13:12:44;23.67;;;11.20;;
11342;SDS011;5726;42.160;24.746;2022-11-20T13:15:34;19.20;;;8.50;;
11342;SDS011;5726;42.160;24.746;2022-11-20T13:18:01;18.60;;;6.30;;
11342;SDS011;5726;42.160;24.746;2022-11-20T13:20:29;12.35;;;5.13;;
11342;SDS011;5726;42.160;24.746;2022-11-20T13:22:57;23.95;;;6.22;;
11342;SDS011;5726;42.160;24.746;2022-11-20T13:27:54;29.25;;;7.10;;
11342;SDS011;5726;42.160;24.746;2022-11-20T13:30:24;25.90;;;6.30;;
11342;SDS011;5726;42.160;24.746;2022-11-20T13:32:55;24.13;;;8.30;;
11342;SDS011;5726;42.160;24.746;2022-11-20T13:35:42;17.33;;;3.92;;
11342;SDS011;5726;42.160;24.746;2022-11-20T13:38:08;11.60;;;3.40;;
11342;SDS011;5726;42.160;24.746;2022-11-20T13:40:36;13.80;;;3.53;;
11342;SDS011;5726;42.160;24.746;2022-11-20T13:43:15;23.80;;;3.60;;
11342;SDS011;5726;42.160;24.746;2022-11-20T13:45:59;17.50;;;3.00;;
11342;SDS011;5726;42.160;24.746;2022-11-20T13:48:29;19.92;;;3.35;;
11342;SDS011;5726;42.160;24.746;2022-11-20T13:51:14;18.15;;;2.95;;
11342;SDS011;5726;42.160;24.746;2022-11-20T14:02:19;12.05;;;2.35;;
11342;SDS011;5726;42.160;24.746;2022-11-20T14:04:54;8.80;;;2.95;;
11342;SDS011;5726;42.160;24.746;2022-11-20T14:08:13;8.73;;;2.20;;
11342;SDS011;5726;42.160;24.746;2022-11-20T14:11:30;10.50;;;2.83;;
11342;SDS011;5726;42.160;24.746;2022-11-20T14:14:29;14.70;;;4.33;;
11342;SDS011;5726;42.160;24.746;2022-11-20T14:20:19;5.53;;;1.80;;
11342;SDS011;5726;42.160;24.746;2022-11-20T14:22:50;17.30;;;8.30;;
11342;SDS011;5726;42.160;24.746;2022-11-20T14:27:42;6.40;;;2.20;;
11342;SDS011;5726;42.160;24.746;2022-11-20T14:30:16;6.50;;;1.40;;
11342;SDS011;5726;42.160;24.746;2022-11-20T14:32:44;6.37;;;1.50;;
11342;SDS011;5726;42.160;24.746;2022-11-20T14:35:16;1.67;;;1.00;;
11342;SDS011;5726;42.160;24.746;2022-11-20T14:37:46;4.67;;;2.17;;
11342;SDS011;5726;42.160;24.746;2022-11-20T14:40:32;6.27;;;3.20;;
11342;SDS011;5726;42.160;24.746;2022-11-20T14:43:00;3.13;;;1.03;;
11342;SDS011;5726;42.160;24.746;2022-11-20T14:45:27;1.83;;;1.03;;
11342;SDS011;5726;42.160;24.746;2022-11-20T14:47:56;6.20;;;1.70;;
11342;SDS011;5726;42.160;24.746;2022-11-20T14:50:26;4.83;;;1.13;;
11342;SDS011;5726;42.160;24.746;2022-11-20T14:52:54;4.03;;;1.40;;
11342;SDS011;5726;42.160;24.746;2022-11-20T14:55:26;3.43;;;1.83;;
11342;SDS011;5726;42.160;24.746;2022-11-20T14:58:23;5.77;;;1.87;;
11342;SDS011;5726;42.160;24.746;2022-11-20T15:00:55;6.97;;;1.97;;
11342;SDS011;5726;42.160;24.746;2022-11-20T15:03:21;6.10;;;1.80;;
11342;SDS011;5726;42.160;24.746;2022-11-20T15:05:48;5.17;;;1.93;;
11342;SDS011;5726;42.160;24.746;2022-11-20T15:08:15;3.53;;;1.50;;
11342;SDS011;5726;42.160;24.746;2022-11-20T15:10:48;24.67;;;16.47;;
11342;SDS011;5726;42.160;24.746;2022-11-20T15:15:55;4.93;;;2.40;;
11342;SDS011;5726;42.160;24.746;2022-11-20T15:18:23;14.63;;;8.47;;
11342;SDS011;5726;42.160;24.746;2022-11-20T15:20:53;11.90;;;7.47;;
11342;SDS011;5726;42.160;24.746;2022-11-20T15:23:21;7.83;;;3.73;;
11342;SDS011;5726;42.160;24.746;2022-11-20T15:25:46;11.30;;;3.67;;
11342;SDS011;5726;42.160;24.746;2022-11-20T15:28:17;7.60;;;2.63;;
11342;SDS011;5726;42.160;24.746;2022-11-20T15:30:48;5.43;;;2.83;;
11342;SDS011;5726;42.160;24.746;2022-11-20T15:33:17;7.10;;;2.77;;
11342;SDS011;5726;42.160;24.746;2022-11-20T15:35:43;2.90;;;1.93;;
11342;SDS011;5726;42.160;24.746;2022-11-20T15:38:09;6.60;;;3.10;;
11342;SDS011;5726;42.160;24.746;2022-11-20T15:40:34;9.27;;;4.37;;
11342;SDS011;5726;42.160;24.746;2022-11-20T15:43:00;8.13;;;3.60;;
11342;SDS011;5726;42.160;24.746;2022-11-20T15:45:29;9.10;;;4.67;;
11342;SDS011;5726;42.160;24.746;2022-11-20T15:47:59;7.80;;;4.30;;
11342;SDS011;5726;42.160;24.746;2022-11-20T15:50:27;41.63;;;28.20;;
11342;SDS011;5726;42.160;24.746;2022-11-20T15:52:59;61.40;;;39.67;;
11342;SDS011;5726;42.160;24.746;2022-11-20T15:55:24;11.10;;;5.63;;
11342;SDS011;5726;42.160;24.746;2022-11-20T15:57:50;8.73;;;3.70;;
11342;SDS011;5726;42.160;24.746;2022-11-20T16:00:15;9.37;;;4.07;;
11342;SDS011;5726;42.160;24.746;2022-11-20T16:02:41;11.40;;;3.87;;
11342;SDS011;5726;42.160;24.746;2022-11-20T16:05:09;6.20;;;2.90;;
11342;SDS011;5726;42.160;24.746;2022-11-20T16:07:37;12.50;;;5.70;;
11342;SDS011;5726;42.160;24.746;2022-11-20T16:10:02;11.83;;;5.87;;
11342;SDS011;5726;42.160;24.746;2022-11-20T16:12:28;9.47;;;4.93;;
11342;SDS011;5726;42.160;24.746;2022-11-20T16:15:12;12.87;;;7.07;;
11342;SDS011;5726;42.160;24.746;2022-11-20T16:17:56;13.30;;;6.60;;
11342;SDS011;5726;42.160;24.746;2022-11-20T16:20:22;9.07;;;4.73;;